Time;durP1;ratioP1;P1;durP2;ratioP2;P2;SDS_P1;SDS_P2;PMS_P1;PMS_P2;Temp;Humidity;BMP_temperature;BMP_pressure;BME280_temperature;BME280_humidity;BME280_pressure;Samples;Min_cycle;Max_cycle;Signal;HPM_P1;HPM_P2
2023/03/17 00:00:42;;;;;;;;;;;;;;;3.39;91.15;98022.00;5121843;28;19924;-62
2023/03/17 00:03:11;;;;;;;;;;;;;;;3.37;90.63;98023.25;5119492;28;19924;-62
2023/03/17 00:05:37;;;;;;;;;;;;;;;3.38;90.17;98014.28;5120052;28;19924;-63
2023/03/17 00:08:10;;;;;;;;;;;;;;;3.39;89.81;98014.06;5120058;28;19924;-63
2023/03/17 00:10:38;;;;;;;;;;;;;;;3.42;89.85;98011.00;5119651;28;19956;-63
2023/03/17 00:13:04;;;;;;;;;;;;;;;3.61;91.75;98009.22;5119569;28;19964;-63
2023/03/17 00:15:31;;;;;;;;;;;;;;;3.73;91.54;98003.03;5119001;28;19932;-62
2023/03/17 00:17:57;;;;;;;;;;;;;;;3.85;89.78;98008.41;5121829;28;19974;-62
2023/03/17 00:20:25;;;;;;;;;;;;;;;3.98;90.36;98005.63;5121545;28;19923;-62
2023/03/17 00:22:51;;;;;;;;;;;;;;;3.97;90.80;98006.66;5120815;28;19966;-62
2023/03/17 00:25:20;;;;;;;;;;;;;;;3.79;89.02;98002.16;5118988;28;20110;-62
2023/03/17 00:27:49;;;;;;;;;;;;;;;3.80;90.22;97993.22;5120274;28;19924;-63
2023/03/17 00:30:15;;;;;;;;;;;;;;;3.81;90.73;97994.81;5122544;28;20371;-63
2023/03/17 00:32:44;;;;;;;;;;;;;;;3.72;90.51;97990.84;5121887;28;19991;-63
2023/03/17 00:35:20;;;;;;;;;;;;;;;3.72;89.86;97985.56;5118940;28;19959;-62
2023/03/17 00:37:47;;;;;;;;;;;;;;;3.71;89.75;97983.16;5119885;28;19938;-62
2023/03/17 00:40:18;;;;;;;;;;;;;;;3.69;90.21;97985.19;5122066;28;19927;-62
2023/03/17 00:42:45;;;;;;;;;;;;;;;3.62;90.50;97979.16;5121381;28;20073;-62
2023/03/17 00:45:13;;;;;;;;;;;;;;;3.64;90.81;97975.28;5118744;28;19974;-62
2023/03/17 00:47:40;;;;;;;;;;;;;;;3.75;91.63;97973.75;5118821;28;19963;-62
2023/03/17 00:50:08;;;;;;;;;;;;;;;3.62;89.93;97968.59;5122265;28;19924;-62
2023/03/17 00:52:35;;;;;;;;;;;;;;;3.65;91.42;97957.59;5122098;28;19983;-62
2023/03/17 00:55:01;;;;;;;;;;;;;;;3.52;90.73;97957.72;5119027;28;19960;-62
2023/03/17 00:57:27;;;;;;;;;;;;;;;3.44;91.66;97957.97;5117455;28;19931;-62
2023/03/17 00:59:54;;;;;;;;;;;;;;;3.53;93.35;97954.06;5120747;28;19992;-63
2023/03/17 01:02:21;;;;;;;;;;;;;;;3.49;92.64;97952.88;5121821;28;19939;-63
2023/03/17 01:04:48;;;;;;;;;;;;;;;3.47;93.84;97950.44;5120739;28;19924;-63
2023/03/17 01:07:14;;;;;;;;;;;;;;;3.40;93.44;97948.91;5118197;28;19981;-63
2023/03/17 01:09:42;;;;;;;;;;;;;;;3.48;96.23;97945.97;5118470;28;19932;-63
2023/03/17 01:12:11;;;;;;;;;;;;;;;3.72;98.15;97953.03;5121706;28;19932;-63
2023/03/17 01:14:37;;;;;;;;;;;;;;;4.12;99.42;97948.97;5121654;28;19991;-63
2023/03/17 01:17:06;;;;;;;;;;;;;;;4.31;99.57;97947.13;5118324;28;19953;-63
2023/03/17 01:19:34;;;;;;;;;;;;;;;4.43;98.55;97941.88;5118102;28;19924;-63
2023/03/17 01:22:00;;;;;;;;;;;;;;;4.33;96.04;97940.56;5121149;28;19920;-63
2023/03/17 01:24:27;;;;;;;;;;;;;;;4.42;97.04;97932.34;5120417;28;19963;-63
2023/03/17 01:26:53;;;;;;;;;;;;;;;4.45;96.71;97921.34;5119362;28;19924;-63
2023/03/17 01:29:20;;;;;;;;;;;;;;;4.63;97.84;97929.22;5117843;28;19928;-63
2023/03/17 01:31:46;;;;;;;;;;;;;;;4.71;97.64;97916.47;5121076;28;20426;-63
2023/03/17 01:34:13;;;;;;;;;;;;;;;4.81;96.60;97906.16;5125534;28;20033;-63
2023/03/17 01:36:42;;;;;;;;;;;;;;;4.84;96.06;97921.59;5125387;28;19924;-63
2023/03/17 01:39:08;;;;;;;;;;;;;;;4.88;96.18;97914.81;5121801;28;19925;-63
2023/03/17 01:41:35;;;;;;;;;;;;;;;4.47;89.65;97912.13;5121879;28;19924;-63
2023/03/17 01:44:02;;;;;;;;;;;;;;;4.19;90.15;97901.31;5125394;28;19924;-62
2023/03/17 01:46:29;;;;;;;;;;;;;;;3.97;90.20;97898.31;5124339;28;19924;-62
2023/03/17 01:49:14;;;;;;;;;;;;;;;3.85;91.51;97900.09;5122965;28;20376;-62
2023/03/17 01:51:45;;;;;;;;;;;;;;;3.81;92.23;97890.97;5122263;28;19958;-63
2023/03/17 01:54:14;;;;;;;;;;;;;;;3.78;93.66;97889.59;5125610;28;19923;-63
2023/03/17 01:56:42;;;;;;;;;;;;;;;3.64;91.82;97882.84;5125173;28;19966;-63
2023/03/17 01:59:10;;;;;;;;;;;;;;;3.54;91.99;97881.72;5121845;28;19924;-62
2023/03/17 02:01:38;;;;;;;;;;;;;;;3.46;91.74;97879.38;5121037;27;19966;-64
2023/03/17 02:04:05;;;;;;;;;;;;;;;3.39;93.24;97879.44;5113889;28;19980;-64
2023/03/17 02:06:32;;;;;;;;;;;;;;;3.33;92.92;97882.16;5113761;28;19991;-64
2023/03/17 02:09:00;;;;;;;;;;;;;;;3.34;95.24;97875.84;5113524;28;19963;-63
2023/03/17 02:11:27;;;;;;;;;;;;;;;3.35;94.36;97877.44;5120512;28;19999;-63
2023/03/17 02:13:53;;;;;;;;;;;;;;;3.32;94.76;97876.06;5113162;28;20010;-63
2023/03/17 02:16:20;;;;;;;;;;;;;;;3.24;93.97;97878.97;5112813;28;19970;-63
2023/03/17 02:18:47;;;;;;;;;;;;;;;3.29;95.76;97876.50;5122306;28;19924;-63
2023/03/17 02:21:44;;;;;;;;;;;;;;;3.28;95.76;97879.38;5124649;28;19928;-63
2023/03/17 02:24:17;;;;;;;;;;;;;;;3.37;95.14;97878.06;5105957;28;19924;-63
2023/03/17 02:26:45;;;;;;;;;;;;;;;3.39;95.78;97874.16;5112033;28;19954;-63
2023/03/17 02:29:11;;;;;;;;;;;;;;;3.37;95.64;97870.13;5123331;28;19930;-63
2023/03/17 02:31:38;;;;;;;;;;;;;;;3.41;96.00;97863.38;5124730;28;19927;-63
2023/03/17 02:34:04;;;;;;;;;;;;;;;3.36;95.98;97868.50;5119813;28;19924;-63
2023/03/17 02:36:31;;;;;;;;;;;;;;;3.32;95.00;97867.31;5119671;28;20046;-63
2023/03/17 02:38:57;;;;;;;;;;;;;;;3.26;95.22;97872.47;5123490;28;19993;-63
2023/03/17 02:41:25;;;;;;;;;;;;;;;3.53;97.89;97874.84;5123136;28;19923;-63
2023/03/17 02:43:52;;;;;;;;;;;;;;;3.53;96.51;97874.84;5121673;28;19923;-63
2023/03/17 02:46:18;;;;;;;;;;;;;;;3.17;93.73;97867.66;5120832;28;19924;-62
2023/03/17 02:48:45;;;;;;;;;;;;;;;3.15;94.54;97859.19;5121730;28;19984;-62
2023/03/17 02:51:11;;;;;;;;;;;;;;;3.05;95.21;97862.31;5124407;28;20362;-62
2023/03/17 02:53:38;;;;;;;;;;;;;;;3.13;97.60;97854.09;5124340;28;19963;-62
2023/03/17 02:56:04;;;;;;;;;;;;;;;3.05;96.35;97853.56;5112135;28;19924;-62
2023/03/17 02:58:32;;;;;;;;;;;;;;;3.16;98.17;97852.84;5111854;28;19977;-62
2023/03/17 03:00:58;;;;;;;;;;;;;;;2.97;96.99;97854.66;5120585;27;19987;-62
2023/03/17 03:03:25;;;;;;;;;;;;;;;3.09;98.58;97862.69;5120198;28;19924;-62
2023/03/17 03:05:51;;;;;;;;;;;;;;;3.60;100.00;97865.00;5122061;28;19928;-62
2023/03/17 03:08:18;;;;;;;;;;;;;;;3.98;100.00;97862.97;5123713;28;19920;-62
2023/03/17 03:10:44;;;;;;;;;;;;;;;4.11;99.22;97860.16;5122856;28;19923;-62
2023/03/17 03:13:11;;;;;;;;;;;;;;;4.16;98.07;97862.94;5120070;28;19959;-62
2023/03/17 03:15:40;;;;;;;;;;;;;;;3.98;94.53;97851.56;5120290;28;19964;-62
2023/03/17 03:18:06;;;;;;;;;;;;;;;3.58;91.29;97849.41;5120073;28;19987;-62
2023/03/17 03:20:33;;;;;;;;;;;;;;;3.33;92.63;97842.56;5119898;28;19973;-62
2023/03/17 03:22:59;;;;;;;;;;;;;;;3.20;94.86;97846.94;5123192;28;19928;-63
2023/03/17 03:25:26;;;;;;;;;;;;;;;3.14;96.15;97834.63;5123569;28;19920;-63
2023/03/17 03:27:53;;;;;;;;;;;;;;;3.01;97.18;97840.00;5121395;28;19924;-63
2023/03/17 03:30:19;;;;;;;;;;;;;;;3.20;98.93;97839.03;5125427;27;19951;-63
2023/03/17 03:32:47;;;;;;;;;;;;;;;3.28;98.58;97841.38;5122270;28;20019;-63
2023/03/17 03:35:14;;;;;;;;;;;;;;;3.37;98.50;97846.38;5119544;28;19983;-63
2023/03/17 03:37:40;;;;;;;;;;;;;;;3.32;96.57;97857.59;5119863;28;19946;-63
2023/03/17 03:40:07;;;;;;;;;;;;;;;3.55;99.40;97859.59;5122879;28;20286;-63
2023/03/17 03:42:34;;;;;;;;;;;;;;;3.60;99.53;97857.09;5123156;28;19924;-63
2023/03/17 03:45:00;;;;;;;;;;;;;;;3.49;96.77;97852.56;5120008;28;19928;-63
2023/03/17 03:47:27;;;;;;;;;;;;;;;3.49;97.18;97852.56;5119483;28;19924;-63
2023/03/17 03:49:54;;;;;;;;;;;;;;;3.40;96.72;97852.03;5121617;28;19943;-61
2023/03/17 03:52:21;;;;;;;;;;;;;;;3.17;95.74;97850.00;5122699;28;19928;-62
2023/03/17 03:54:47;;;;;;;;;;;;;;;3.24;97.83;97845.50;5121440;28;19953;-62
2023/03/17 03:57:13;;;;;;;;;;;;;;;3.25;98.46;97844.44;5118918;28;20487;-62
2023/03/17 03:59:40;;;;;;;;;;;;;;;3.19;97.40;97857.69;5117924;27;19936;-61
2023/03/17 04:02:06;;;;;;;;;;;;;;;3.09;97.62;97838.94;5122804;28;19919;-61
2023/03/17 04:04:33;;;;;;;;;;;;;;;3.13;99.59;97838.28;5122555;28;19959;-61
2023/03/17 04:07:01;;;;;;;;;;;;;;;3.16;100.00;97831.75;5119675;28;19928;-62
2023/03/17 04:09:27;;;;;;;;;;;;;;;3.26;100.00;97838.16;5119134;28;19924;-62
2023/03/17 04:11:54;;;;;;;;;;;;;;;3.22;99.43;97847.53;5120956;28;19935;-62
2023/03/17 04:14:20;;;;;;;;;;;;;;;3.20;99.47;97833.75;5122455;28;19967;-62
2023/03/17 04:16:46;;;;;;;;;;;;;;;3.00;98.65;97833.09;5121238;28;19930;-62
2023/03/17 04:19:14;;;;;;;;;;;;;;;2.91;99.55;97829.13;5118765;28;20010;-62
2023/03/17 04:21:41;;;;;;;;;;;;;;;2.88;100.00;97824.28;5119035;28;19924;-62
2023/03/17 04:24:09;;;;;;;;;;;;;;;2.94;100.00;97833.97;5122569;28;19924;-62
2023/03/17 04:26:35;;;;;;;;;;;;;;;2.86;100.00;97834.25;5122294;28;19982;-62
2023/03/17 04:29:02;;;;;;;;;;;;;;;3.12;100.00;97831.41;5118982;28;19959;-62
2023/03/17 04:31:28;;;;;;;;;;;;;;;3.30;100.00;97832.44;5119045;28;19924;-62
2023/03/17 04:33:55;;;;;;;;;;;;;;;3.65;100.00;97830.84;5120827;28;19931;-62
2023/03/17 04:36:22;;;;;;;;;;;;;;;3.84;100.00;97824.50;5121999;28;19946;-62
2023/03/17 04:38:49;;;;;;;;;;;;;;;3.48;97.56;97822.69;5120617;28;19930;-62
2023/03/17 04:41:17;;;;;;;;;;;;;;;3.14;97.61;97825.88;5118292;28;19946;-62
2023/03/17 04:43:43;;;;;;;;;;;;;;;3.04;99.63;97826.38;5119047;28;19931;-62
2023/03/17 04:46:09;;;;;;;;;;;;;;;3.00;100.00;97821.78;5122068;28;20457;-62
2023/03/17 04:48:36;;;;;;;;;;;;;;;3.00;100.00;97819.91;5122043;28;19966;-62
2023/03/17 04:51:02;;;;;;;;;;;;;;;3.35;100.00;97824.66;5118616;28;19924;-62
2023/03/17 04:53:29;;;;;;;;;;;;;;;3.70;100.00;97818.59;5118467;28;20002;-62
2023/03/17 04:55:55;;;;;;;;;;;;;;;3.69;100.00;97811.69;5120623;28;19967;-62
2023/03/17 04:58:23;;;;;;;;;;;;;;;3.88;100.00;97816.94;5121779;28;20460;-62
2023/03/17 05:00:50;;;;;;;;;;;;;;;4.02;100.00;97821.88;5119357;28;19920;-62
2023/03/17 05:03:16;;;;;;;;;;;;;;;4.07;100.00;97824.63;5117155;28;19920;-62
2023/03/17 05:05:42;;;;;;;;;;;;;;;4.08;99.98;97828.91;5118250;28;20418;-62
2023/03/17 05:08:09;;;;;;;;;;;;;;;3.99;99.56;97835.50;5121895;28;19923;-62
2023/03/17 05:10:35;;;;;;;;;;;;;;;4.00;99.92;97833.66;5121759;28;20489;-62
2023/03/17 05:13:02;;;;;;;;;;;;;;;4.05;98.49;97826.69;5118643;28;20336;-62
2023/03/17 05:15:30;;;;;;;;;;;;;;;3.92;97.91;97833.97;5118237;28;19925;-62
2023/03/17 05:17:56;;;;;;;;;;;;;;;4.06;99.57;97840.69;5119608;28;19920;-62
2023/03/17 05:20:23;;;;;;;;;;;;;;;3.91;98.68;97833.16;5120711;28;19970;-65
2023/03/17 05:22:49;;;;;;;;;;;;;;;3.88;99.37;97830.97;5120383;28;19927;-63
2023/03/17 05:25:16;;;;;;;;;;;;;;;3.77;98.60;97835.19;5118465;28;19924;-63
2023/03/17 05:27:43;;;;;;;;;;;;;;;3.70;99.28;97825.69;5118732;28;19920;-63
2023/03/17 05:30:10;;;;;;;;;;;;;;;3.74;100.00;97826.88;5121991;28;19924;-62
2023/03/17 05:32:37;;;;;;;;;;;;;;;3.83;100.00;97824.75;5121409;28;20019;-62
2023/03/17 05:35:04;;;;;;;;;;;;;;;3.65;99.59;97815.78;5118310;28;19927;-62
2023/03/17 05:37:31;;;;;;;;;;;;;;;3.77;100.00;97818.53;5118007;28;19951;-62
2023/03/17 05:39:58;;;;;;;;;;;;;;;4.06;100.00;97838.06;5120219;28;19924;-62
2023/03/17 05:42:25;;;;;;;;;;;;;;;3.96;98.78;97827.22;5121465;28;20389;-62
2023/03/17 05:44:51;;;;;;;;;;;;;;;3.88;99.33;97828.31;5119772;28;19963;-62
2023/03/17 05:47:17;;;;;;;;;;;;;;;3.90;99.88;97839.47;5118052;28;19935;-62
2023/03/17 05:49:45;;;;;;;;;;;;;;;4.01;100.00;97851.94;5118535;28;20007;-62
2023/03/17 05:52:12;;;;;;;;;;;;;;;4.21;100.00;97855.13;5121732;28;19927;-62
2023/03/17 05:54:39;;;;;;;;;;;;;;;4.29;100.00;97854.84;5121390;28;19966;-62
2023/03/17 05:57:06;;;;;;;;;;;;;;;4.40;99.25;97858.53;5116641;28;19924;-62
2023/03/17 05:59:32;;;;;;;;;;;;;;;4.18;96.38;97852.94;5116312;28;19932;-62
2023/03/17 06:01:59;;;;;;;;;;;;;;;4.03;96.19;97851.72;5119793;28;19942;-62
2023/03/17 06:04:25;;;;;;;;;;;;;;;3.75;96.19;97836.41;5121062;28;20371;-62
2023/03/17 06:06:53;;;;;;;;;;;;;;;3.50;98.29;97822.47;5119252;28;19931;-62
2023/03/17 06:09:19;;;;;;;;;;;;;;;3.35;99.23;97814.09;5117425;28;19924;-62
2023/03/17 06:11:46;;;;;;;;;;;;;;;3.20;100.00;97817.09;5118523;28;19924;-62
2023/03/17 06:14:13;;;;;;;;;;;;;;;3.18;100.00;97819.16;5121024;28;19949;-62
2023/03/17 06:16:39;;;;;;;;;;;;;;;3.19;100.00;97837.41;5121002;28;19924;-62
2023/03/17 06:19:06;;;;;;;;;;;;;;;3.28;100.00;97839.78;5110086;28;19960;-62
2023/03/17 06:21:32;;;;;;;;;;;;;;;3.26;100.00;97830.22;5112582;28;19996;-62
2023/03/17 06:24:00;;;;;;;;;;;;;;;3.22;100.00;97828.25;5112581;28;19973;-62
2023/03/17 06:26:27;;;;;;;;;;;;;;;3.19;100.00;97829.50;5112460;28;19947;-62
2023/03/17 06:28:53;;;;;;;;;;;;;;;3.32;100.00;97827.75;5121704;28;19960;-62
2023/03/17 06:31:19;;;;;;;;;;;;;;;3.28;100.00;97829.22;5127300;27;19924;-62
2023/03/17 06:33:46;;;;;;;;;;;;;;;3.17;100.00;97828.09;5121747;28;19931;-61
2023/03/17 06:36:13;;;;;;;;;;;;;;;3.16;100.00;97827.28;5124316;28;19924;-61
2023/03/17 06:38:39;;;;;;;;;;;;;;;3.23;100.00;97835.13;5124171;28;19920;-62
2023/03/17 06:41:07;;;;;;;;;;;;;;;3.28;100.00;97824.72;5112274;28;19924;-62
2023/03/17 06:43:35;;;;;;;;;;;;;;;3.32;100.00;97827.75;5112410;28;19928;-63
2023/03/17 06:46:01;;;;;;;;;;;;;;;3.30;100.00;97829.81;5112458;28;19932;-63
2023/03/17 06:48:28;;;;;;;;;;;;;;;3.33;100.00;97832.81;5112220;28;19974;-63
2023/03/17 06:50:55;;;;;;;;;;;;;;;3.36;100.00;97832.38;5111998;28;19991;-63
2023/03/17 06:53:21;;;;;;;;;;;;;;;3.36;100.00;97821.81;5112050;28;19935;-63
2023/03/17 06:55:48;;;;;;;;;;;;;;;3.49;100.00;97829.59;5112029;28;19956;-63
2023/03/17 06:58:15;;;;;;;;;;;;;;;3.54;100.00;97835.03;5111841;28;19920;-63
2023/03/17 07:00:44;;;;;;;;;;;;;;;3.73;100.00;97835.81;5120896;27;19955;-64
2023/03/17 07:03:10;;;;;;;;;;;;;;;3.81;98.51;97832.88;5120605;28;19924;-63
2023/03/17 07:05:38;;;;;;;;;;;;;;;3.82;97.96;97826.56;5120474;28;19932;-63
2023/03/17 07:08:04;;;;;;;;;;;;;;;3.87;98.29;97829.34;5123879;28;19925;-63
2023/03/17 07:10:32;;;;;;;;;;;;;;;3.92;97.44;97823.41;5123812;28;19931;-63
2023/03/17 07:12:58;;;;;;;;;;;;;;;3.99;95.79;97817.00;5121318;28;19924;-63
2023/03/17 07:15:26;;;;;;;;;;;;;;;3.98;94.84;97820.69;5120034;28;19960;-63
2023/03/17 07:17:53;;;;;;;;;;;;;;;4.06;94.28;97824.84;5121769;28;19942;-63
2023/03/17 07:20:19;;;;;;;;;;;;;;;4.16;93.59;97827.75;5122301;28;19982;-63
2023/03/17 07:22:46;;;;;;;;;;;;;;;4.20;92.50;97818.38;5122588;28;19928;-63
2023/03/17 07:25:13;;;;;;;;;;;;;;;4.22;91.45;97811.81;5118798;28;19991;-63
2023/03/17 07:27:39;;;;;;;;;;;;;;;4.30;91.64;97811.47;5119869;28;20010;-63
2023/03/17 07:30:06;;;;;;;;;;;;;;;4.41;90.64;97794.06;5114959;27;19962;-63
2023/03/17 07:32:35;;;;;;;;;;;;;;;4.48;90.34;97809.81;5123296;28;19951;-63
2023/03/17 07:35:01;;;;;;;;;;;;;;;4.55;89.47;97811.31;5120022;28;19928;-63
2023/03/17 07:37:28;;;;;;;;;;;;;;;4.63;89.48;97810.19;5119547;28;19955;-63
2023/03/17 07:39:55;;;;;;;;;;;;;;;4.73;89.63;97807.81;5121208;28;19920;-63
2023/03/17 07:42:21;;;;;;;;;;;;;;;4.76;88.68;97810.00;5123268;28;19959;-63
2023/03/17 07:44:47;;;;;;;;;;;;;;;4.75;88.23;97813.66;5121851;28;19935;-63
2023/03/17 07:47:14;;;;;;;;;;;;;;;4.84;87.95;97809.66;5119737;28;19979;-63
2023/03/17 07:49:42;;;;;;;;;;;;;;;4.90;87.51;97811.38;5120283;28;19985;-63
2023/03/17 07:52:09;;;;;;;;;;;;;;;4.92;85.26;97817.25;5123277;28;19962;-63
2023/03/17 07:54:36;;;;;;;;;;;;;;;4.97;84.83;97806.78;5123078;28;19924;-62
2023/03/17 07:57:03;;;;;;;;;;;;;;;5.03;84.38;97808.53;5119479;28;19950;-62
2023/03/17 07:59:30;;;;;;;;;;;;;;;5.10;84.39;97825.09;5119135;28;19963;-63
2023/03/17 08:01:57;;;;;;;;;;;;;;;5.11;83.33;97816.09;5121679;28;19920;-62
2023/03/17 08:04:23;;;;;;;;;;;;;;;5.19;82.54;97815.78;5122540;28;19955;-62
2023/03/17 08:06:51;;;;;;;;;;;;;;;5.23;82.59;97810.84;5121104;28;19974;-62
2023/03/17 08:09:17;;;;;;;;;;;;;;;5.37;83.01;97817.50;5119234;28;19956;-62
2023/03/17 08:11:43;;;;;;;;;;;;;;;5.41;82.70;97811.50;5119782;28;20000;-62
2023/03/17 08:14:10;;;;;;;;;;;;;;;5.51;81.33;97815.41;5122682;28;19995;-62
2023/03/17 08:16:37;;;;;;;;;;;;;;;5.60;80.57;97819.31;5122341;28;19953;-62
2023/03/17 08:19:05;;;;;;;;;;;;;;;5.68;79.19;97816.28;5118183;28;19971;-62
2023/03/17 08:21:31;;;;;;;;;;;;;;;5.80;78.57;97815.22;5119331;28;19924;-63
2023/03/17 08:24:00;;;;;;;;;;;;;;;5.81;77.91;97805.44;5121202;28;19928;-63
2023/03/17 08:26:26;;;;;;;;;;;;;;;5.89;77.99;97813.84;5122217;28;19944;-63
2023/03/17 08:28:53;;;;;;;;;;;;;;;5.99;77.60;97813.25;5120523;28;19928;-63
2023/03/17 08:31:20;;;;;;;;;;;;;;;6.09;77.32;97813.44;5119384;28;19924;-62
2023/03/17 08:33:47;;;;;;;;;;;;;;;6.19;78.45;97796.91;5119578;28;19967;-62
2023/03/17 08:36:15;;;;;;;;;;;;;;;6.23;77.29;97803.34;5122281;28;19955;-62
2023/03/17 08:38:41;;;;;;;;;;;;;;;6.23;76.14;97792.72;5121859;28;19932;-62
2023/03/17 08:41:11;;;;;;;;;;;;;;;6.33;74.38;97799.03;5117631;28;19931;-62
2023/03/17 08:43:37;;;;;;;;;;;;;;;6.48;74.20;97787.88;5117534;28;19947;-62
2023/03/17 08:46:06;;;;;;;;;;;;;;;6.52;72.78;97791.66;5121730;28;19930;-62
2023/03/17 08:48:33;;;;;;;;;;;;;;;6.52;72.03;97775.75;5121928;28;19986;-62
2023/03/17 08:50:59;;;;;;;;;;;;;;;6.63;70.61;97768.75;5119103;28;19970;-62
2023/03/17 08:53:26;;;;;;;;;;;;;;;6.68;69.32;97752.94;5118266;28;19966;-62
2023/03/17 08:55:54;;;;;;;;;;;;;;;6.74;69.97;97752.78;5119930;28;19924;-62
2023/03/17 08:58:22;;;;;;;;;;;;;;;6.88;70.76;97755.88;5121747;28;19951;-64
2023/03/17 09:00:48;;;;;;;;;;;;;;;6.98;71.70;97748.88;5121295;28;19955;-63
2023/03/17 09:03:15;;;;;;;;;;;;;;;7.03;69.92;97756.09;5118579;28;19924;-63
2023/03/17 09:05:42;;;;;;;;;;;;;;;6.98;68.85;97756.03;5118313;28;19924;-63
2023/03/17 09:08:10;;;;;;;;;;;;;;;7.05;67.79;97759.34;5121844;28;19930;-63
2023/03/17 09:10:36;;;;;;;;;;;;;;;7.12;67.68;97770.56;5121598;28;19919;-63
2023/03/17 09:13:03;;;;;;;;;;;;;;;7.13;69.31;97764.22;5118596;28;19991;-63
2023/03/17 09:15:32;;;;;;;;;;;;;;;7.29;70.27;97771.34;5118578;28;19951;-62
2023/03/17 09:17:58;;;;;;;;;;;;;;;7.40;70.88;97777.59;5121152;28;19935;-62
2023/03/17 09:20:25;;;;;;;;;;;;;;;7.47;70.76;97781.69;5122123;28;19955;-62
2023/03/17 09:22:53;;;;;;;;;;;;;;;7.49;69.73;97766.28;5120307;28;19926;-62
2023/03/17 09:25:19;;;;;;;;;;;;;;;7.81;67.70;97763.75;5118449;28;19934;-62
2023/03/17 09:27:46;;;;;;;;;;;;;;;7.83;66.58;97760.88;5118989;28;19959;-62
2023/03/17 09:30:13;;;;;;;;;;;;;;;7.85;66.73;97764.06;5122369;28;20019;-63
2023/03/17 09:32:41;;;;;;;;;;;;;;;7.87;67.16;97757.44;5121710;28;19946;-63
2023/03/17 09:35:08;;;;;;;;;;;;;;;8.11;66.21;97763.28;5109912;28;19926;-62
2023/03/17 09:37:35;;;;;;;;;;;;;;;8.21;66.44;97758.06;5109710;28;19924;-63
2023/03/17 09:40:02;;;;;;;;;;;;;;;8.30;66.52;97756.59;5109282;28;19955;-63
2023/03/17 09:42:39;;;;;;;;;;;;;;;8.29;66.85;97757.66;5109529;28;20552;-63
2023/03/17 09:45:15;;;;;;;;;;;;;;;8.37;66.74;97751.88;5109864;28;19930;-63
2023/03/17 09:47:53;;;;;;;;;;;;;;;8.41;67.03;97744.19;5118235;28;19928;-62
2023/03/17 09:50:24;;;;;;;;;;;;;;;8.49;65.73;97749.84;5121556;28;19920;-62
2023/03/17 09:52:51;;;;;;;;;;;;;;;8.51;66.29;97736.31;5122120;28;19923;-63
2023/03/17 09:55:22;;;;;;;;;;;;;;;8.65;66.42;97738.28;5122085;28;19939;-63
2023/03/17 09:57:51;;;;;;;;;;;;;;;8.71;64.83;97733.00;5122964;28;19983;-63
2023/03/17 10:00:19;;;;;;;;;;;;;;;8.67;65.50;97725.50;5125887;27;19924;-63
2023/03/17 10:02:46;;;;;;;;;;;;;;;8.74;65.91;97725.31;5124507;28;19963;-63
2023/03/17 10:05:18;;;;;;;;;;;;;;;8.78;65.34;97729.06;5121927;28;19924;-63
2023/03/17 10:07:47;;;;;;;;;;;;;;;8.82;65.65;97721.38;5122353;28;19920;-63
2023/03/17 10:10:14;;;;;;;;;;;;;;;8.98;64.46;97717.72;5125256;28;19927;-63
2023/03/17 10:12:46;;;;;;;;;;;;;;;8.97;63.71;97718.81;5125093;28;19924;-63
2023/03/17 10:15:16;;;;;;;;;;;;;;;9.14;64.50;97712.25;5121765;28;19927;-63
2023/03/17 10:17:42;;;;;;;;;;;;;;;9.11;64.70;97709.28;5122004;28;19988;-63
2023/03/17 10:20:14;;;;;;;;;;;;;;;9.27;63.28;97712.84;5125446;28;19999;-63
2023/03/17 10:22:45;;;;;;;;;;;;;;;9.36;62.63;97706.75;5124959;28;19932;-63
2023/03/17 10:25:14;;;;;;;;;;;;;;;9.40;62.60;97705.19;5121466;28;19968;-63
2023/03/17 10:27:42;;;;;;;;;;;;;;;9.43;61.31;97702.00;5121511;28;19930;-63
2023/03/17 10:30:13;;;;;;;;;;;;;;;9.54;59.71;97714.28;5125664;27;19963;-62
2023/03/17 10:32:40;;;;;;;;;;;;;;;9.63;59.95;97703.91;5124858;28;19923;-63
2023/03/17 10:35:07;;;;;;;;;;;;;;;9.50;58.78;97699.88;5121324;28;19931;-63
2023/03/17 10:37:35;;;;;;;;;;;;;;;9.59;57.98;97694.88;5121392;28;19931;-63
2023/03/17 10:40:09;;;;;;;;;;;;;;;9.66;58.59;97698.88;5124240;28;19931;-63
2023/03/17 10:42:44;;;;;;;;;;;;;;;9.46;63.11;97696.16;5124886;28;19924;-63
2023/03/17 10:45:15;;;;;;;;;;;;;;;9.52;72.84;97697.78;5121445;28;19962;-63
2023/03/17 10:47:44;;;;;;;;;;;;;;;9.81;70.28;97697.31;5121520;28;19960;-63
2023/03/17 10:50:19;;;;;;;;;;;;;;;9.36;72.41;97690.75;5124503;28;20007;-63
2023/03/17 10:52:46;;;;;;;;;;;;;;;9.43;75.98;97694.00;5123595;28;19977;-63
2023/03/17 10:55:16;;;;;;;;;;;;;;;9.92;74.43;97688.28;5120884;28;19952;-63
2023/03/17 10:57:49;;;;;;;;;;;;;;;9.90;74.88;97679.75;5120011;28;19924;-63
2023/03/17 11:00:18;;;;;;;;;;;;;;;9.84;75.97;97678.13;5124929;27;19928;-63
2023/03/17 11:02:47;;;;;;;;;;;;;;;10.00;73.57;97664.53;5122143;28;19987;-63
2023/03/17 11:05:19;;;;;;;;;;;;;;;9.81;74.80;97670.66;5119821;28;19924;-63
2023/03/17 11:07:46;;;;;;;;;;;;;;;9.83;77.25;97681.84;5121052;28;20000;-63
2023/03/17 11:10:20;;;;;;;;;;;;;;;10.10;72.34;97671.75;5123883;28;19941;-63
2023/03/17 11:12:48;;;;;;;;;;;;;;;10.33;69.25;97663.28;5122869;28;19935;-63
2023/03/17 11:15:16;;;;;;;;;;;;;;;10.22;68.44;97672.34;5120387;28;19963;-63
2023/03/17 11:17:46;;;;;;;;;;;;;;;10.47;69.49;97656.31;5120604;28;19919;-63
2023/03/17 11:20:40;;;;;;;;;;;;;;;10.49;66.28;97659.50;5123820;28;19923;-63
2023/03/17 11:23:10;;;;;;;;;;;;;;;10.40;68.44;97647.78;5115312;28;19924;-63
2023/03/17 11:25:41;;;;;;;;;;;;;;;10.63;66.68;97641.09;5120053;28;19931;-63
2023/03/17 11:28:15;;;;;;;;;;;;;;;10.92;64.64;97635.97;5119970;28;19923;-63
2023/03/17 11:30:44;;;;;;;;;;;;;;;10.56;65.68;97644.03;5128714;27;19920;-63
2023/03/17 11:33:20;;;;;;;;;;;;;;;10.62;73.37;97642.16;5120135;28;19927;-63
2023/03/17 11:35:51;;;;;;;;;;;;;;;10.87;70.59;97646.63;5120871;28;19928;-63
2023/03/17 11:38:26;;;;;;;;;;;;;;;10.91;67.01;97642.38;5123504;28;19928;-63
2023/03/17 11:41:02;;;;;;;;;;;;;;;11.17;62.60;97633.22;5121594;28;19934;-63
2023/03/17 11:43:33;;;;;;;;;;;;;;;10.88;64.69;97629.56;5118381;28;19924;-64
2023/03/17 11:46:04;;;;;;;;;;;;;;;11.09;64.01;97634.56;5122392;28;19985;-64
2023/03/17 11:48:37;;;;;;;;;;;;;;;11.36;58.69;97645.69;5123135;28;19924;-64
2023/03/17 11:51:09;;;;;;;;;;;;;;;11.47;57.48;97634.94;5120091;28;19928;-64
2023/03/17 11:53:42;;;;;;;;;;;;;;;11.48;64.37;97629.31;5119707;28;19928;-64
2023/03/17 11:56:14;;;;;;;;;;;;;;;11.14;66.74;97626.50;5118475;28;19991;-64
2023/03/17 11:58:42;;;;;;;;;;;;;;;11.47;68.00;97611.69;5119720;28;19969;-64
2023/03/17 12:01:12;;;;;;;;;;;;;;;11.64;62.31;97608.63;5127729;28;19928;-64
2023/03/17 12:03:42;;;;;;;;;;;;;;;11.74;58.04;97598.72;5118454;28;19959;-63
2023/03/17 12:06:13;;;;;;;;;;;;;;;11.75;56.48;97599.50;5118331;28;19987;-63
2023/03/17 12:08:41;;;;;;;;;;;;;;;11.93;55.80;97587.34;5119270;28;19967;-63
2023/03/17 12:11:09;;;;;;;;;;;;;;;12.17;53.36;97585.53;5119503;28;19959;-63
2023/03/17 12:13:39;;;;;;;;;;;;;;;12.23;52.34;97587.88;5119065;28;19930;-63
2023/03/17 12:16:10;;;;;;;;;;;;;;;12.37;50.74;97574.66;5110723;28;19954;-63
2023/03/17 12:18:41;;;;;;;;;;;;;;;12.59;51.24;97574.97;5109651;28;19925;-64
2023/03/17 12:21:12;;;;;;;;;;;;;;;12.61;50.32;97572.00;5122792;28;19966;-63
2023/03/17 12:23:45;;;;;;;;;;;;;;;12.04;51.33;97578.16;5122626;28;19935;-64
2023/03/17 12:26:13;;;;;;;;;;;;;;;10.87;57.61;97578.00;5119255;28;20246;-64
2023/03/17 12:28:44;;;;;;;;;;;;;;;11.85;54.88;97578.81;5119261;28;19996;-64
2023/03/17 12:31:12;;;;;;;;;;;;;;;12.22;54.07;97561.41;5119745;28;19959;-64
2023/03/17 12:33:43;;;;;;;;;;;;;;;12.35;52.05;97560.72;5118836;28;19964;-64
2023/03/17 12:36:13;;;;;;;;;;;;;;;12.57;50.18;97566.41;5118880;28;19924;-64
2023/03/17 12:38:40;;;;;;;;;;;;;;;12.54;49.72;97550.09;5118909;28;19924;-64
2023/03/17 12:41:37;;;;;;;;;;;;;;;12.71;49.59;97548.59;5118966;28;19928;-64
2023/03/17 12:44:11;;;;;;;;;;;;;;;13.03;49.19;97547.94;5121817;28;21475;-64
2023/03/17 12:46:56;;;;;;;;;;;;;;;13.06;49.68;97554.63;5122382;28;19924;-64
2023/03/17 12:49:41;;;;;;;;;;;;;;;12.11;52.21;97543.84;5114663;28;19924;-64
2023/03/17 12:52:16;;;;;;;;;;;;;;;12.58;51.39;97535.88;5118684;28;19983;-64
2023/03/17 12:54:45;;;;;;;;;;;;;;;13.11;50.28;97541.97;5118766;28;19955;-64
2023/03/17 12:57:14;;;;;;;;;;;;;;;13.32;49.60;97537.13;5122134;28;20019;-63